Three Stars — 3ELI2 — position and weather

sailwx.info

Track history (hours):
 
Tides and Currents Weather Stations Pressure Air Temp Water Temp Dewpoint Dewpoint Depression Visibility Wind Speed Wind Dir Waves Ship Positions

Three Stars

Last reported at 2018-May-10 13:29 UTC. Time now 2018-May-23 16:19 UTC.
Position S 24°24' W 046°10'.
Warning: this ship's position is 13 days out of date.

Length 225 m; draft 13.2 m.

Type: Cargo ship. MMSI: 372950000.

Date/timePositionNaut miles runAvg speedWind from/ knotsBaromVisibWave heightAir tempDewpointWater temp
2018-May-10 13:29S 24°24' W 046°10'510.9
2018-May-10 13:00S 24°21' W 046°14'611.0
2018-May-10 12:30S 24°17' W 046°18'510.4
2018-May-10 12:00S 24°12' W 046°22'3 5.9
2018-May-10 11:30S 24°09' W 046°22'5 9.3
2018-May-10 11:00S 24°05' W 046°22'510.0
2018-May-10 10:30S 24°00' W 046°20'  
2018-May-08 05:15S 23°59' W 046°17'0 0.0
2018-May-08 05:00S 23°59' W 046°17'0 0.0
2018-May-08 04:24S 23°59' W 046°17'0 0.0
2018-May-08 03:57S 23°59' W 046°17'0 0.0
2018-May-07 22:36S 23°59' W 046°17'0 0.0
2018-May-07 22:24S 23°59' W 046°17'0 0.0
2018-May-07 21:54S 23°59' W 046°17'0 0.0
2018-May-07 21:09S 23°59' W 046°17'0 0.0
2018-May-07 20:54S 23°59' W 046°17'0 0.0
2018-May-07 20:24S 23°59' W 046°17'0 0.0
2018-May-07 19:36S 23°59' W 046°17'0 0.0
2018-May-07 19:30S 23°59' W 046°17'0 0.0
2018-May-07 18:48S 23°59' W 046°17'0 0.0
2018-May-07 16:36S 23°59' W 046°17'0 0.0
2018-May-07 16:12S 23°59' W 046°17'0 0.0
2018-May-07 16:00S 23°59' W 046°17'0 0.0
2018-May-07 04:03S 23°59' W 046°17'0 5.5
2018-May-07 03:59S 23°59' W 046°18'3 6.6
2018-May-07 03:29S 24°01' W 046°21'3 7.1
2018-May-07 03:00S 24°04' W 046°19'1 1.7
2018-May-07 02:25S 24°05' W 046°20'0 0.0
2018-May-07 01:58S 24°05' W 046°20'0 0.0
2018-May-07 01:22S 24°05' W 046°20'0 0.1
2018-May-07 00:55S 24°05' W 046°20'0 0.1
2018-May-07 00:28S 24°05' W 046°20'0 0.1
2018-May-06 23:55S 24°05' W 046°20'0 0.0
2018-May-06 23:28S 24°05' W 046°20'0 0.0
2018-May-06 22:55S 24°05' W 046°20'0 0.0
2018-May-06 22:28S 24°05' W 046°20'0 0.0
2018-May-06 21:58S 24°05' W 046°20'0 0.0
2018-May-06 21:28S 24°05' W 046°20'0 0.0
2018-May-06 20:58S 24°05' W 046°20'0 0.0
2018-May-06 20:28S 24°05' W 046°20'0 0.0
2018-May-06 19:55S 24°05' W 046°20'0 0.0
2018-May-06 19:28S 24°05' W 046°20'0 0.0
2018-May-06 18:55S 24°05' W 046°20'0 0.0
2018-May-06 18:28S 24°05' W 046°20'0 0.1
2018-May-06 17:55S 24°05' W 046°20'0 0.0
2018-May-06 17:28S 24°05' W 046°20'0 0.0
2018-May-06 16:58S 24°05' W 046°20'0 0.0
2018-May-06 16:22S 24°05' W 046°20'0 0.0
2018-May-06 15:55S 24°05' W 046°20'0 0.0
2018-May-06 15:28S 24°05' W 046°20'0 0.0
2018-May-06 14:58S 24°05' W 046°20'0 0.0
2018-May-06 14:28S 24°05' W 046°20'0 0.0
2018-May-06 13:52S 24°05' W 046°20'0 0.0
2018-May-06 13:28S 24°05' W 046°20'0 0.0
2018-May-06 12:49S 24°05' W 046°20'0 0.0
2018-May-06 12:28S 24°05' W 046°20'0 0.0
2018-May-06 11:55S 24°05' W 046°20'0 0.0
2018-May-06 11:22S 24°05' W 046°20'0 0.0
2018-May-06 10:58S 24°05' W 046°20'0 0.0
2018-May-06 10:28S 24°05' W 046°20'0 0.0
2018-May-06 09:58S 24°05' W 046°20'0 0.0
2018-May-06 09:22S 24°05' W 046°20'0 0.0
2018-May-06 08:58S 24°05' W 046°20'0 0.0
2018-May-06 08:28S 24°05' W 046°20'0 0.0
2018-May-06 07:55S 24°05' W 046°20'0 0.0
2018-May-06 07:22S 24°05' W 046°20'0 0.0
2018-May-06 06:58S 24°05' W 046°20'0 0.0
2018-May-06 06:28S 24°05' W 046°20'0 0.1
2018-May-06 05:58S 24°05' W 046°20'0 0.1
2018-May-06 05:22S 24°05' W 046°20'0 0.0
2018-May-06 04:58S 24°05' W 046°20'0 0.1
2018-May-06 04:28S 24°05' W 046°20'0 0.0
2018-May-06 03:58S 24°05' W 046°20'0 0.0
2018-May-06 03:25S 24°05' W 046°20'0 0.0
2018-May-06 02:58S 24°05' W 046°20'0 0.0
2018-May-06 02:28S 24°05' W 046°20'0 0.0
2018-May-06 01:52S 24°05' W 046°20'0 0.1
2018-May-06 01:28S 24°05' W 046°20'0 0.1
2018-May-06 00:58S 24°05' W 046°20'0 0.0
2018-May-06 00:28S 24°05' W 046°20'0 0.0
2018-May-05 23:58S 24°05' W 046°20'0 0.0
2018-May-05 23:28S 24°05' W 046°20'0 0.0
2018-May-05 22:58S 24°05' W 046°20'0 0.0
2018-May-05 22:25S 24°05' W 046°20'0 0.0
2018-May-05 21:55S 24°05' W 046°20'0 0.0
2018-May-05 21:22S 24°05' W 046°20'0 0.0
2018-May-05 20:58S 24°05' W 046°20'0 0.0
2018-May-05 20:25S 24°05' W 046°20'0 0.0
2018-May-05 19:49S 24°05' W 046°20'0 0.0
2018-May-05 19:25S 24°05' W 046°20'0 0.0
2018-May-05 18:58S 24°05' W 046°20'0 0.0
2018-May-05 18:28S 24°05' W 046°20'0 0.0
2018-May-05 17:58S 24°05' W 046°20'0 0.0
2018-May-05 17:25S 24°05' W 046°20'0 0.0
2018-May-05 16:52S 24°05' W 046°20'0 0.0
2018-May-05 16:28S 24°05' W 046°20'0 0.0
2018-May-05 15:55S 24°05' W 046°20'0 0.0
2018-May-05 15:22S 24°05' W 046°20'0 0.1
2018-May-05 14:48S 24°05' W 046°20'0 0.1
2018-May-05 14:28S 24°05' W 046°20'0 0.0
2018-May-05 13:58S 24°05' W 046°20'0 0.0
2018-May-05 13:28S 24°05' W 046°20'0 0.0
2018-May-05 12:54S 24°05' W 046°20'0 0.1
2018-May-05 12:24S 24°05' W 046°20'0 0.0
2018-May-05 12:00S 24°05' W 046°20'0 0.1
2018-May-05 11:27S 24°05' W 046°20'0 0.1
2018-May-05 11:00S 24°05' W 046°20'0 0.0
2018-May-05 10:30S 24°05' W 046°20'0 0.0
2018-May-05 09:54S 24°05' W 046°20'0 0.0
2018-May-05 09:30S 24°05' W 046°20'0 0.1
2018-May-05 09:00S 24°05' W 046°20'0 0.0
2018-May-05 08:24S 24°05' W 046°20'0 0.0
2018-May-05 07:57S 24°05' W 046°20'0 0.0
2018-May-05 07:24S 24°05' W 046°20'0 0.0
2018-May-05 07:00S 24°05' W 046°20'0 0.1
2018-May-05 06:30S 24°05' W 046°20'0 0.1
2018-May-05 06:00S 24°05' W 046°20'0 0.0
2018-May-05 05:30S 24°05' W 046°20'0 0.0
2018-May-05 04:57S 24°05' W 046°20'0 0.0
2018-May-05 04:30S 24°05' W 046°20'0 0.0
2018-May-05 03:57S 24°05' W 046°20'0 0.0
2018-May-05 03:30S 24°05' W 046°20'0 0.0
2018-May-05 02:51S 24°05' W 046°20'0 0.0
2018-May-05 02:30S 24°05' W 046°20'0 0.0
2018-May-05 01:45S 24°05' W 046°20'0 0.0
2018-May-05 01:30S 24°05' W 046°20'0 0.0
2018-May-05 00:57S 24°05' W 046°20'0 0.0
2018-May-05 00:15S 24°05' W 046°20'0 0.0
2018-May-05 00:00S 24°05' W 046°20'0 0.0
2018-May-04 23:21S 24°05' W 046°20'0 0.0
2018-May-04 23:00S 24°05' W 046°20'0 0.0
2018-May-04 22:30S 24°05' W 046°20'0 0.0
2018-May-04 21:57S 24°05' W 046°20'0 0.0
2018-May-04 21:30S 24°05' W 046°20'0 0.0
2018-May-04 21:00S 24°05' W 046°20'0 0.0
2018-May-04 20:12S 24°05' W 046°20'0 0.0
2018-May-04 19:57S 24°05' W 046°20'0 0.0
2018-May-04 19:30S 24°05' W 046°20'0 0.0
2018-May-04 19:00S 24°05' W 046°20'0 0.0
2018-May-04 18:21S 24°05' W 046°20'0 0.0
2018-May-04 18:00S 24°05' W 046°20'0 0.0
2018-May-04 17:27S 24°05' W 046°20'0 0.0
2018-May-04 17:00S 24°05' W 046°20'0 0.0
2018-May-04 16:27S 24°05' W 046°20'0 0.0
2018-May-04 15:57S 24°05' W 046°20'0 0.0
2018-May-04 15:30S 24°05' W 046°20'0 0.0
2018-May-04 14:54S 24°05' W 046°20'0 0.0
2018-May-04 14:30S 24°05' W 046°20'0 0.0
2018-May-04 13:57S 24°05' W 046°20'0 0.0
2018-May-04 13:30S 24°05' W 046°20'0 0.0
2018-May-04 13:00S 24°05' W 046°20'0 0.0
2018-May-04 12:21S 24°05' W 046°20'0 0.0
2018-May-04 11:54S 24°05' W 046°20'0 0.0
2018-May-04 11:30S 24°05' W 046°20'0 0.0
2018-May-04 11:00S 24°05' W 046°20'0 0.1
2018-May-04 10:21S 24°05' W 046°20'0 0.0
2018-May-04 10:00S 24°05' W 046°20'0 0.1
2018-May-04 09:30S 24°05' W 046°20'0 0.0
2018-May-04 08:54S 24°05' W 046°20'0 0.0
2018-May-04 08:30S 24°05' W 046°20'0 0.0
2018-May-04 07:54S 24°05' W 046°20'0 0.0
2018-May-04 07:30S 24°05' W 046°20'0 0.0
2018-May-04 07:00S 24°05' W 046°20'0 0.0
2018-May-04 06:27S 24°05' W 046°20'0 0.0
2018-May-04 05:57S 24°05' W 046°20'0 0.0
2018-May-04 05:27S 24°05' W 046°20'0 0.0
2018-May-04 04:54S 24°05' W 046°20'0 0.0
2018-May-04 04:27S 24°05' W 046°20'0 0.0
2018-May-04 04:00S 24°05' W 046°20'0 0.0
2018-May-04 03:27S 24°05' W 046°20'0 0.0
2018-May-04 02:57S 24°05' W 046°20'0 0.0
2018-May-04 02:27S 24°05' W 046°20'0 0.0
2018-May-04 02:00S 24°05' W 046°20'0 0.0
2018-May-04 01:24S 24°05' W 046°20'0 0.1
2018-May-04 00:51S 24°05' W 046°20'0 0.0
2018-May-04 00:27S 24°05' W 046°20'0 0.0
2018-May-04 00:00S 24°05' W 046°20'0 0.0
2018-May-03 23:30S 24°05' W 046°20'0 0.0
2018-May-03 22:57S 24°05' W 046°20'0 0.0
2018-May-03 22:30S 24°05' W 046°20'0 0.0
2018-May-03 22:00S 24°05' W 046°20'0 0.0
2018-May-03 21:27S 24°05' W 046°20'0 0.0
2018-May-03 21:00S 24°05' W 046°20'0 0.0
2018-May-03 20:21S 24°05' W 046°20'0 0.0
2018-May-03 19:57S 24°05' W 046°20'0 0.0
2018-May-03 19:27S 24°05' W 046°20'0 0.0
2018-May-03 19:00S 24°05' W 046°20'0 0.0
2018-May-03 18:30S 24°05' W 046°20'0 0.0
2018-May-03 18:00S 24°05' W 046°20'0 0.0
2018-May-03 17:30S 24°05' W 046°20'0 0.0
2018-May-03 16:51S 24°05' W 046°20'0 0.1
2018-May-03 16:30S 24°05' W 046°20'0 0.0
2018-May-03 16:00S 24°05' W 046°20'0 0.0
2018-May-03 15:27S 24°05' W 046°20'0 0.0
2018-May-03 14:54S 24°05' W 046°20'0 0.0
2018-May-03 14:30S 24°05' W 046°20'0 0.0
2018-May-03 13:54S 24°05' W 046°20'0 0.1
2018-May-03 13:27S 24°05' W 046°20'0 0.1
2018-May-03 13:00S 24°05' W 046°20'0 0.1
2018-May-03 12:30S 24°05' W 046°20'0 0.0
2018-May-03 12:00S 24°05' W 046°20'0 0.0
2018-May-03 11:30S 24°05' W 046°20'0 0.0
2018-May-03 11:00S 24°05' W 046°20'0 0.0
2018-May-03 10:12S 24°05' W 046°20'0 0.0
2018-May-03 09:54S 24°05' W 046°20'0 0.0
2018-May-03 09:30S 24°05' W 046°20'0 0.0
2018-May-03 09:00S 24°05' W 046°20'0 0.0
2018-May-03 08:30S 24°05' W 046°20'0 0.0
2018-May-03 08:00S 24°05' W 046°20'0 0.0
2018-May-03 07:24S 24°05' W 046°20'0 0.0
2018-May-03 07:00S 24°05' W 046°20'0 0.0
2018-May-03 06:30S 24°05' W 046°20'0 0.0
2018-May-03 05:54S 24°05' W 046°20'0 0.0
2018-May-03 05:30S 24°05' W 046°20'0 0.0
2018-May-03 05:00S 24°05' W 046°20'0 0.0
2018-May-03 04:30S 24°05' W 046°20'0 0.0
2018-May-03 04:00S 24°05' W 046°20'0 0.0
2018-May-03 03:21S 24°05' W 046°20'0 0.0
2018-May-03 03:00S 24°05' W 046°20'0 0.0
2018-May-03 02:30S 24°05' W 046°20'0 0.0
2018-May-03 02:00S 24°05' W 046°20'0 0.0
2018-May-03 01:12S 24°05' W 046°20'0 0.1
2018-May-03 01:00S 24°05' W 046°20'0 0.0
2018-May-03 00:30S 24°05' W 046°20'0 0.0
2018-May-03 00:00S 24°05' W 046°20'0 0.0
2018-May-02 23:30S 24°05' W 046°20'0 0.1
2018-May-02 22:57S 24°05' W 046°20'0 0.0
2018-May-02 22:30S 24°05' W 046°20'0 0.1
2018-May-02 22:00S 24°05' W 046°20'0 0.1
2018-May-02 21:30S 24°05' W 046°20'0 0.1
2018-May-02 20:54S 24°05' W 046°20'0 0.0
2018-May-02 20:30S 24°05' W 046°20'0 0.1
2018-May-02 19:48S 24°05' W 046°20'0 0.1
2018-May-02 19:24S 24°05' W 046°20'0 0.1
2018-May-02 19:00S 24°05' W 046°20'0 0.0
2018-May-02 18:24S 24°05' W 046°20'0 0.1
2018-May-02 18:00S 24°05' W 046°20'0 0.1
2018-May-02 17:27S 24°05' W 046°20'0 0.1
2018-May-02 16:54S 24°05' W 046°20'0 0.0
2018-May-02 16:21S 24°05' W 046°20'0 0.0
2018-May-02 16:00S 24°05' W 046°20'0 0.1
2018-May-02 15:27S 24°05' W 046°20'0 0.0
2018-May-02 15:00S 24°05' W 046°20'0 0.0
2018-May-02 14:30S 24°05' W 046°20'0 0.0
2018-May-02 14:00S 24°05' W 046°20'0 0.0
2018-May-02 13:30S 24°05' W 046°20'0 0.0
2018-May-02 13:00S 24°05' W 046°20'0 0.0
2018-May-02 12:30S 24°05' W 046°20'0 0.0
2018-May-02 12:00S 24°05' W 046°20'0 0.0
2018-May-02 11:27S 24°05' W 046°20'0 0.0
2018-May-02 11:00S 24°05' W 046°20'0 0.0
2018-May-02 10:27S 24°05' W 046°20'0 0.0
2018-May-02 09:57S 24°05' W 046°20'0 0.0
2018-May-02 09:30S 24°05' W 046°20'0 0.0
2018-May-02 09:00S 24°05' W 046°20'0 0.0
2018-May-02 08:30S 24°05' W 046°20'0 0.0
2018-May-02 08:00S 24°05' W 046°20'0 0.0
2018-May-02 07:30S 24°05' W 046°20'0 0.0
2018-May-02 07:00S 24°05' W 046°20'0 0.0
2018-May-02 06:24S 24°05' W 046°20'0 0.0
2018-May-02 06:00S 24°05' W 046°20'0 0.0
2018-May-02 05:30S 24°05' W 046°20'0 0.0
2018-May-02 04:57S 24°05' W 046°20'0 0.0
2018-May-02 04:30S 24°05' W 046°20'0 0.0
2018-May-02 03:51S 24°05' W 046°20'0 0.0
2018-May-02 03:30S 24°05' W 046°20'0 0.0
2018-May-02 02:51S 24°05' W 046°20'0 0.0
2018-May-02 02:27S 24°05' W 046°20'0 0.1
2018-May-02 02:00S 24°05' W 046°20'0 0.0
2018-May-02 01:27S 24°05' W 046°20'0 0.0
2018-May-02 01:00S 24°05' W 046°20'0 0.0
2018-May-02 00:24S 24°05' W 046°20'0 0.1
2018-May-02 00:00S 24°05' W 046°20'0 0.0
2018-May-01 23:27S 24°05' W 046°20'0 0.1
2018-May-01 22:57S 24°05' W 046°20'0 0.0
2018-May-01 22:21S 24°05' W 046°20'0 0.0
2018-May-01 21:54S 24°05' W 046°20'0 0.1
2018-May-01 21:30S 24°05' W 046°20'0 0.1
2018-May-01 20:51S 24°05' W 046°20'0 0.0
2018-May-01 20:24S 24°05' W 046°20'0 0.1
2018-May-01 20:00S 24°05' W 046°20'0 0.0
2018-May-01 19:30S 24°05' W 046°20'0 0.0
2018-May-01 19:00S 24°05' W 046°20'0 0.0
2018-May-01 18:30S 24°05' W 046°20'0 0.0
2018-May-01 17:51S 24°05' W 046°20'0 0.0
2018-May-01 17:30S 24°05' W 046°20'0 0.0
2018-May-01 17:00S 24°05' W 046°20'0 0.0
2018-May-01 16:30S 24°05' W 046°20'0 0.0
2018-May-01 16:00S 24°05' W 046°20'0 0.0
2018-May-01 15:12S 24°05' W 046°20'0 0.0
2018-May-01 15:00S 24°05' W 046°20'0 0.0
2018-May-01 14:24S 24°05' W 046°20'0 0.0
2018-May-01 14:00S 24°05' W 046°20'0 0.0
2018-May-01 13:30S 24°05' W 046°20'0 0.0
2018-May-01 13:00S 24°05' W 046°20'0 0.0
2018-May-01 12:30S 24°05' W 046°20'0 0.0
2018-May-01 12:00S 24°05' W 046°20'0 0.0
2018-May-01 11:30S 24°05' W 046°20'0 0.0
2018-May-01 11:00S 24°05' W 046°20'0 0.0
2018-May-01 10:30S 24°05' W 046°20'0 0.1
2018-May-01 10:00S 24°05' W 046°20'0 0.1
2018-May-01 09:30S 24°05' W 046°20'0 0.0
2018-May-01 09:00S 24°05' W 046°20'0 0.0
2018-May-01 08:30S 24°05' W 046°20'0 0.1
2018-May-01 08:00S 24°05' W 046°20'0 0.1
2018-May-01 07:30S 24°05' W 046°20'0 0.1
2018-May-01 07:00S 24°05' W 046°20'0 0.1
2018-May-01 06:27S 24°05' W 046°20'0 0.1
2018-May-01 05:54S 24°05' W 046°20'0 0.0
2018-May-01 05:21S 24°05' W 046°20'0 0.0
2018-May-01 05:00S 24°05' W 046°20'0 0.0
2018-May-01 04:30S 24°05' W 046°20'0 0.0
2018-May-01 04:00S 24°05' W 046°20'0 0.0
2018-May-01 03:30S 24°05' W 046°20'0 0.0
2018-May-01 03:00S 24°05' W 046°20'0 0.1
2018-May-01 02:27S 24°05' W 046°20'0 0.0
2018-May-01 02:00S 24°05' W 046°20'0 0.0
2018-May-01 01:30S 24°05' W 046°20'0 0.0
2018-May-01 01:00S 24°05' W 046°20'0 0.0
2018-May-01 00:30S 24°05' W 046°20'0 0.1
2018-May-01 00:00S 24°05' W 046°20'0 0.0
2018-Apr-30 23:21S 24°05' W 046°20'0 0.0
2018-Apr-30 22:57S 24°05' W 046°20'0 0.0
2018-Apr-30 22:30S 24°05' W 046°20'0 0.4
2018-Apr-30 21:57S 24°05' W 046°20'0 0.5
2018-Apr-30 21:31S 24°05' W 046°19'2 3.0
2018-Apr-30 20:59S 24°04' W 046°18'2 5.0
2018-Apr-30 20:30S 24°05' W 046°15'4 8.7
2018-Apr-30 20:00S 24°05' W 046°10'4 8.2
2018-Apr-30 19:30S 24°05' W 046°06'0 0.7
2018-Apr-30 19:01S 24°04' W 046°06'0 0.0
2018-Apr-30 18:29S 24°04' W 046°06'0 0.0
2018-Apr-30 17:58S 24°04' W 046°06'0 0.0
2018-Apr-30 17:30S 24°04' W 046°06'0 0.0
2018-Apr-30 17:00S 24°04' W 046°06'0 0.1
2018-Apr-30 16:19S 24°04' W 046°06'0 0.4
2018-Apr-30 15:35S 24°05' W 046°06'0 0.4
2018-Apr-30 15:11S 24°05' W 046°06'0 0.4
2018-Apr-30 15:00S 24°05' W 046°06'1 0.5
2018-Apr-30 13:33S 24°05' W 046°05'  
Track history (hours):
 
Tides and Currents Weather Stations Pressure Air Temp Water Temp Dewpoint Dewpoint Depression Visibility Wind Speed Wind Dir Waves Ship Positions

Three Stars

Last reported at 2018-May-10 13:29 UTC. Time now 2018-May-23 16:19 UTC.
Position S 24°24' W 046°10'.
Warning: this ship's position is 13 days out of date.

Length 225 m; draft 13.2 m.

Type: Cargo ship. MMSI: 372950000.

Date/timePositionNaut miles runAvg speedWind from/ knotsBaromVisibWave heightAir tempDewpointWater temp
2018-May-10 13:29S 24°24' W 046°10'510.9
2018-May-10 13:00S 24°21' W 046°14'611.0
2018-May-10 12:30S 24°17' W 046°18'510.4
2018-May-10 12:00S 24°12' W 046°22'3 5.9
2018-May-10 11:30S 24°09' W 046°22'5 9.3
2018-May-10 11:00S 24°05' W 046°22'510.0
2018-May-10 10:30S 24°00' W 046°20'  
2018-May-08 05:15S 23°59' W 046°17'0 0.0
2018-May-08 05:00S 23°59' W 046°17'0 0.0
2018-May-08 04:24S 23°59' W 046°17'0 0.0
2018-May-08 03:57S 23°59' W 046°17'0 0.0
2018-May-07 22:36S 23°59' W 046°17'0 0.0
2018-May-07 22:24S 23°59' W 046°17'0 0.0
2018-May-07 21:54S 23°59' W 046°17'0 0.0
2018-May-07 21:09S 23°59' W 046°17'0 0.0
2018-May-07 20:54S 23°59' W 046°17'0 0.0
2018-May-07 20:24S 23°59' W 046°17'0 0.0
2018-May-07 19:36S 23°59' W 046°17'0 0.0
2018-May-07 19:30S 23°59' W 046°17'0 0.0
2018-May-07 18:48S 23°59' W 046°17'0 0.0
2018-May-07 16:36S 23°59' W 046°17'0 0.0
2018-May-07 16:12S 23°59' W 046°17'0 0.0
2018-May-07 16:00S 23°59' W 046°17'0 0.0
2018-May-07 04:03S 23°59' W 046°17'0 5.5
2018-May-07 03:59S 23°59' W 046°18'3 6.6
2018-May-07 03:29S 24°01' W 046°21'3 7.1
2018-May-07 03:00S 24°04' W 046°19'1 1.7
2018-May-07 02:25S 24°05' W 046°20'0 0.0
2018-May-07 01:58S 24°05' W 046°20'0 0.0
2018-May-07 01:22S 24°05' W 046°20'0 0.1
2018-May-07 00:55S 24°05' W 046°20'0 0.1
2018-May-07 00:28S 24°05' W 046°20'0 0.1
2018-May-06 23:55S 24°05' W 046°20'0 0.0
2018-May-06 23:28S 24°05' W 046°20'0 0.0
2018-May-06 22:55S 24°05' W 046°20'0 0.0
2018-May-06 22:28S 24°05' W 046°20'0 0.0
2018-May-06 21:58S 24°05' W 046°20'0 0.0
2018-May-06 21:28S 24°05' W 046°20'0 0.0
2018-May-06 20:58S 24°05' W 046°20'0 0.0
2018-May-06 20:28S 24°05' W 046°20'0 0.0
2018-May-06 19:55S 24°05' W 046°20'0 0.0
2018-May-06 19:28S 24°05' W 046°20'0 0.0
2018-May-06 18:55S 24°05' W 046°20'0 0.0
2018-May-06 18:28S 24°05' W 046°20'0 0.1
2018-May-06 17:55S 24°05' W 046°20'0 0.0
2018-May-06 17:28S 24°05' W 046°20'0 0.0
2018-May-06 16:58S 24°05' W 046°20'0 0.0
2018-May-06 16:22S 24°05' W 046°20'0 0.0
2018-May-06 15:55S 24°05' W 046°20'0 0.0
2018-May-06 15:28S 24°05' W 046°20'0 0.0
2018-May-06 14:58S 24°05' W 046°20'0 0.0
2018-May-06 14:28S 24°05' W 046°20'0 0.0
2018-May-06 13:52S 24°05' W 046°20'0 0.0
2018-May-06 13:28S 24°05' W 046°20'0 0.0
2018-May-06 12:49S 24°05' W 046°20'0 0.0
2018-May-06 12:28S 24°05' W 046°20'0 0.0
2018-May-06 11:55S 24°05' W 046°20'0 0.0
2018-May-06 11:22S 24°05' W 046°20'0 0.0
2018-May-06 10:58S 24°05' W 046°20'0 0.0
2018-May-06 10:28S 24°05' W 046°20'0 0.0
2018-May-06 09:58S 24°05' W 046°20'0 0.0
2018-May-06 09:22S 24°05' W 046°20'0 0.0
2018-May-06 08:58S 24°05' W 046°20'0 0.0
2018-May-06 08:28S 24°05' W 046°20'0 0.0
2018-May-06 07:55S 24°05' W 046°20'0 0.0
2018-May-06 07:22S 24°05' W 046°20'0 0.0
2018-May-06 06:58S 24°05' W 046°20'0 0.0
2018-May-06 06:28S 24°05' W 046°20'0 0.1
2018-May-06 05:58S 24°05' W 046°20'0 0.1
2018-May-06 05:22S 24°05' W 046°20'0 0.0
2018-May-06 04:58S 24°05' W 046°20'0 0.1
2018-May-06 04:28S 24°05' W 046°20'0 0.0
2018-May-06 03:58S 24°05' W 046°20'0 0.0
2018-May-06 03:25S 24°05' W 046°20'0 0.0
2018-May-06 02:58S 24°05' W 046°20'0 0.0
2018-May-06 02:28S 24°05' W 046°20'0 0.0
2018-May-06 01:52S 24°05' W 046°20'0 0.1
2018-May-06 01:28S 24°05' W 046°20'0 0.1
2018-May-06 00:58S 24°05' W 046°20'0 0.0
2018-May-06 00:28S 24°05' W 046°20'0 0.0
2018-May-05 23:58S 24°05' W 046°20'0 0.0
2018-May-05 23:28S 24°05' W 046°20'0 0.0
2018-May-05 22:58S 24°05' W 046°20'0 0.0
2018-May-05 22:25S 24°05' W 046°20'0 0.0
2018-May-05 21:55S 24°05' W 046°20'0 0.0
2018-May-05 21:22S 24°05' W 046°20'0 0.0
2018-May-05 20:58S 24°05' W 046°20'0 0.0
2018-May-05 20:25S 24°05' W 046°20'0 0.0
2018-May-05 19:49S 24°05' W 046°20'0 0.0
2018-May-05 19:25S 24°05' W 046°20'0 0.0
2018-May-05 18:58S 24°05' W 046°20'0 0.0
2018-May-05 18:28S 24°05' W 046°20'0 0.0
2018-May-05 17:58S 24°05' W 046°20'0 0.0
2018-May-05 17:25S 24°05' W 046°20'0 0.0
2018-May-05 16:52S 24°05' W 046°20'0 0.0
2018-May-05 16:28S 24°05' W 046°20'0 0.0
2018-May-05 15:55S 24°05' W 046°20'0 0.0
2018-May-05 15:22S 24°05' W 046°20'0 0.1
2018-May-05 14:48S 24°05' W 046°20'0 0.1
2018-May-05 14:28S 24°05' W 046°20'0 0.0
2018-May-05 13:58S 24°05' W 046°20'0 0.0
2018-May-05 13:28S 24°05' W 046°20'0 0.0
2018-May-05 12:54S 24°05' W 046°20'0 0.1
2018-May-05 12:24S 24°05' W 046°20'0 0.0
2018-May-05 12:00S 24°05' W 046°20'0 0.1
2018-May-05 11:27S 24°05' W 046°20'0 0.1
2018-May-05 11:00S 24°05' W 046°20'0 0.0
2018-May-05 10:30S 24°05' W 046°20'0 0.0
2018-May-05 09:54S 24°05' W 046°20'0 0.0
2018-May-05 09:30S 24°05' W 046°20'0 0.1
2018-May-05 09:00S 24°05' W 046°20'0 0.0
2018-May-05 08:24S 24°05' W 046°20'0 0.0
2018-May-05 07:57S 24°05' W 046°20'0 0.0
2018-May-05 07:24S 24°05' W 046°20'0 0.0
2018-May-05 07:00S 24°05' W 046°20'0 0.1
2018-May-05 06:30S 24°05' W 046°20'0 0.1
2018-May-05 06:00S 24°05' W 046°20'0 0.0
2018-May-05 05:30S 24°05' W 046°20'0 0.0
2018-May-05 04:57S 24°05' W 046°20'0 0.0
2018-May-05 04:30S 24°05' W 046°20'0 0.0
2018-May-05 03:57S 24°05' W 046°20'0 0.0
2018-May-05 03:30S 24°05' W 046°20'0 0.0
2018-May-05 02:51S 24°05' W 046°20'0 0.0
2018-May-05 02:30S 24°05' W 046°20'0 0.0
2018-May-05 01:45S 24°05' W 046°20'0 0.0
2018-May-05 01:30S 24°05' W 046°20'0 0.0
2018-May-05 00:57S 24°05' W 046°20'0 0.0
2018-May-05 00:15S 24°05' W 046°20'0 0.0
2018-May-05 00:00S 24°05' W 046°20'0 0.0
2018-May-04 23:21S 24°05' W 046°20'0 0.0
2018-May-04 23:00S 24°05' W 046°20'0 0.0
2018-May-04 22:30S 24°05' W 046°20'0 0.0
2018-May-04 21:57S 24°05' W 046°20'0 0.0
2018-May-04 21:30S 24°05' W 046°20'0 0.0
2018-May-04 21:00S 24°05' W 046°20'0 0.0
2018-May-04 20:12S 24°05' W 046°20'0 0.0
2018-May-04 19:57S 24°05' W 046°20'0 0.0
2018-May-04 19:30S 24°05' W 046°20'0 0.0
2018-May-04 19:00S 24°05' W 046°20'0 0.0
2018-May-04 18:21S 24°05' W 046°20'0 0.0
2018-May-04 18:00S 24°05' W 046°20'0 0.0
2018-May-04 17:27S 24°05' W 046°20'0 0.0
2018-May-04 17:00S 24°05' W 046°20'0 0.0
2018-May-04 16:27S 24°05' W 046°20'0 0.0
2018-May-04 15:57S 24°05' W 046°20'0 0.0
2018-May-04 15:30S 24°05' W 046°20'0 0.0
2018-May-04 14:54S 24°05' W 046°20'0 0.0
2018-May-04 14:30S 24°05' W 046°20'0 0.0
2018-May-04 13:57S 24°05' W 046°20'0 0.0
2018-May-04 13:30S 24°05' W 046°20'0 0.0
2018-May-04 13:00S 24°05' W 046°20'0 0.0
2018-May-04 12:21S 24°05' W 046°20'0 0.0
2018-May-04 11:54S 24°05' W 046°20'0 0.0
2018-May-04 11:30S 24°05' W 046°20'0 0.0
2018-May-04 11:00S 24°05' W 046°20'0 0.1
2018-May-04 10:21S 24°05' W 046°20'0 0.0
2018-May-04 10:00S 24°05' W 046°20'0 0.1
2018-May-04 09:30S 24°05' W 046°20'0 0.0
2018-May-04 08:54S 24°05' W 046°20'0 0.0
2018-May-04 08:30S 24°05' W 046°20'0 0.0
2018-May-04 07:54S 24°05' W 046°20'0 0.0
2018-May-04 07:30S 24°05' W 046°20'0 0.0
2018-May-04 07:00S 24°05' W 046°20'0 0.0
2018-May-04 06:27S 24°05' W 046°20'0 0.0
2018-May-04 05:57S 24°05' W 046°20'0 0.0
2018-May-04 05:27S 24°05' W 046°20'0 0.0
2018-May-04 04:54S 24°05' W 046°20'0 0.0
2018-May-04 04:27S 24°05' W 046°20'0 0.0
2018-May-04 04:00S 24°05' W 046°20'0 0.0
2018-May-04 03:27S 24°05' W 046°20'0 0.0
2018-May-04 02:57S 24°05' W 046°20'0 0.0
2018-May-04 02:27S 24°05' W 046°20'0 0.0
2018-May-04 02:00S 24°05' W 046°20'0 0.0
2018-May-04 01:24S 24°05' W 046°20'0 0.1
2018-May-04 00:51S 24°05' W 046°20'0 0.0
2018-May-04 00:27S 24°05' W 046°20'0 0.0
2018-May-04 00:00S 24°05' W 046°20'0 0.0
2018-May-03 23:30S 24°05' W 046°20'0 0.0
2018-May-03 22:57S 24°05' W 046°20'0 0.0
2018-May-03 22:30S 24°05' W 046°20'0 0.0
2018-May-03 22:00S 24°05' W 046°20'0 0.0
2018-May-03 21:27S 24°05' W 046°20'0 0.0
2018-May-03 21:00S 24°05' W 046°20'0 0.0
2018-May-03 20:21S 24°05' W 046°20'0 0.0
2018-May-03 19:57S 24°05' W 046°20'0 0.0
2018-May-03 19:27S 24°05' W 046°20'0 0.0
2018-May-03 19:00S 24°05' W 046°20'0 0.0
2018-May-03 18:30S 24°05' W 046°20'0 0.0
2018-May-03 18:00S 24°05' W 046°20'0 0.0
2018-May-03 17:30S 24°05' W 046°20'0 0.0
2018-May-03 16:51S 24°05' W 046°20'0 0.1
2018-May-03 16:30S 24°05' W 046°20'0 0.0
2018-May-03 16:00S 24°05' W 046°20'0 0.0
2018-May-03 15:27S 24°05' W 046°20'0 0.0
2018-May-03 14:54S 24°05' W 046°20'0 0.0
2018-May-03 14:30S 24°05' W 046°20'0 0.0
2018-May-03 13:54S 24°05' W 046°20'0 0.1
2018-May-03 13:27S 24°05' W 046°20'0 0.1
2018-May-03 13:00S 24°05' W 046°20'0 0.1
2018-May-03 12:30S 24°05' W 046°20'0 0.0
2018-May-03 12:00S 24°05' W 046°20'0 0.0
2018-May-03 11:30S 24°05' W 046°20'0 0.0
2018-May-03 11:00S 24°05' W 046°20'0 0.0
2018-May-03 10:12S 24°05' W 046°20'0 0.0
2018-May-03 09:54S 24°05' W 046°20'0 0.0
2018-May-03 09:30S 24°05' W 046°20'0 0.0
2018-May-03 09:00S 24°05' W 046°20'0 0.0
2018-May-03 08:30S 24°05' W 046°20'0 0.0
2018-May-03 08:00S 24°05' W 046°20'0 0.0
2018-May-03 07:24S 24°05' W 046°20'0 0.0
2018-May-03 07:00S 24°05' W 046°20'0 0.0
2018-May-03 06:30S 24°05' W 046°20'0 0.0
2018-May-03 05:54S 24°05' W 046°20'0 0.0
2018-May-03 05:30S 24°05' W 046°20'0 0.0
2018-May-03 05:00S 24°05' W 046°20'0 0.0
2018-May-03 04:30S 24°05' W 046°20'0 0.0
2018-May-03 04:00S 24°05' W 046°20'0 0.0
2018-May-03 03:21S 24°05' W 046°20'0 0.0
2018-May-03 03:00S 24°05' W 046°20'0 0.0
2018-May-03 02:30S 24°05' W 046°20'0 0.0
2018-May-03 02:00S 24°05' W 046°20'0 0.0
2018-May-03 01:12S 24°05' W 046°20'0 0.1
2018-May-03 01:00S 24°05' W 046°20'0 0.0
2018-May-03 00:30S 24°05' W 046°20'0 0.0
2018-May-03 00:00S 24°05' W 046°20'0 0.0
2018-May-02 23:30S 24°05' W 046°20'0 0.1
2018-May-02 22:57S 24°05' W 046°20'0 0.0
2018-May-02 22:30S 24°05' W 046°20'0 0.1
2018-May-02 22:00S 24°05' W 046°20'0 0.1
2018-May-02 21:30S 24°05' W 046°20'0 0.1
2018-May-02 20:54S 24°05' W 046°20'0 0.0
2018-May-02 20:30S 24°05' W 046°20'0 0.1
2018-May-02 19:48S 24°05' W 046°20'0 0.1
2018-May-02 19:24S 24°05' W 046°20'0 0.1
2018-May-02 19:00S 24°05' W 046°20'0 0.0
2018-May-02 18:24S 24°05' W 046°20'0 0.1
2018-May-02 18:00S 24°05' W 046°20'0 0.1
2018-May-02 17:27S 24°05' W 046°20'0 0.1
2018-May-02 16:54S 24°05' W 046°20'0 0.0
2018-May-02 16:21S 24°05' W 046°20'0 0.0
2018-May-02 16:00S 24°05' W 046°20'0 0.1
2018-May-02 15:27S 24°05' W 046°20'0 0.0
2018-May-02 15:00S 24°05' W 046°20'0 0.0
2018-May-02 14:30S 24°05' W 046°20'0 0.0
2018-May-02 14:00S 24°05' W 046°20'0 0.0
2018-May-02 13:30S 24°05' W 046°20'0 0.0
2018-May-02 13:00S 24°05' W 046°20'0 0.0
2018-May-02 12:30S 24°05' W 046°20'0 0.0
2018-May-02 12:00S 24°05' W 046°20'0 0.0
2018-May-02 11:27S 24°05' W 046°20'0 0.0
2018-May-02 11:00S 24°05' W 046°20'0 0.0
2018-May-02 10:27S 24°05' W 046°20'0 0.0
2018-May-02 09:57S 24°05' W 046°20'0 0.0
2018-May-02 09:30S 24°05' W 046°20'0 0.0
2018-May-02 09:00S 24°05' W 046°20'0 0.0
2018-May-02 08:30S 24°05' W 046°20'0 0.0
2018-May-02 08:00S 24°05' W 046°20'0 0.0
2018-May-02 07:30S 24°05' W 046°20'0 0.0
2018-May-02 07:00S 24°05' W 046°20'0 0.0
2018-May-02 06:24S 24°05' W 046°20'0 0.0
2018-May-02 06:00S 24°05' W 046°20'0 0.0
2018-May-02 05:30S 24°05' W 046°20'0 0.0
2018-May-02 04:57S 24°05' W 046°20'0 0.0
2018-May-02 04:30S 24°05' W 046°20'0 0.0
2018-May-02 03:51S 24°05' W 046°20'0 0.0
2018-May-02 03:30S 24°05' W 046°20'0 0.0
2018-May-02 02:51S 24°05' W 046°20'0 0.0
2018-May-02 02:27S 24°05' W 046°20'0 0.1
2018-May-02 02:00S 24°05' W 046°20'0 0.0
2018-May-02 01:27S 24°05' W 046°20'0 0.0
2018-May-02 01:00S 24°05' W 046°20'0 0.0
2018-May-02 00:24S 24°05' W 046°20'0 0.1
2018-May-02 00:00S 24°05' W 046°20'0 0.0
2018-May-01 23:27S 24°05' W 046°20'0 0.1
2018-May-01 22:57S 24°05' W 046°20'0 0.0
2018-May-01 22:21S 24°05' W 046°20'0 0.0
2018-May-01 21:54S 24°05' W 046°20'0 0.1
2018-May-01 21:30S 24°05' W 046°20'0 0.1
2018-May-01 20:51S 24°05' W 046°20'0 0.0
2018-May-01 20:24S 24°05' W 046°20'0 0.1
2018-May-01 20:00S 24°05' W 046°20'0 0.0
2018-May-01 19:30S 24°05' W 046°20'0 0.0
2018-May-01 19:00S 24°05' W 046°20'0 0.0
2018-May-01 18:30S 24°05' W 046°20'0 0.0
2018-May-01 17:51S 24°05' W 046°20'0 0.0
2018-May-01 17:30S 24°05' W 046°20'0 0.0
2018-May-01 17:00S 24°05' W 046°20'0 0.0
2018-May-01 16:30S 24°05' W 046°20'0 0.0
2018-May-01 16:00S 24°05' W 046°20'0 0.0
2018-May-01 15:12S 24°05' W 046°20'0 0.0
2018-May-01 15:00S 24°05' W 046°20'0 0.0
2018-May-01 14:24S 24°05' W 046°20'0 0.0
2018-May-01 14:00S 24°05' W 046°20'0 0.0
2018-May-01 13:30S 24°05' W 046°20'0 0.0
2018-May-01 13:00S 24°05' W 046°20'0 0.0
2018-May-01 12:30S 24°05' W 046°20'0 0.0
2018-May-01 12:00S 24°05' W 046°20'0 0.0
2018-May-01 11:30S 24°05' W 046°20'0 0.0
2018-May-01 11:00S 24°05' W 046°20'0 0.0
2018-May-01 10:30S 24°05' W 046°20'0 0.1
2018-May-01 10:00S 24°05' W 046°20'0 0.1
2018-May-01 09:30S 24°05' W 046°20'0 0.0
2018-May-01 09:00S 24°05' W 046°20'0 0.0
2018-May-01 08:30S 24°05' W 046°20'0 0.1
2018-May-01 08:00S 24°05' W 046°20'0 0.1
2018-May-01 07:30S 24°05' W 046°20'0 0.1
2018-May-01 07:00S 24°05' W 046°20'0 0.1
2018-May-01 06:27S 24°05' W 046°20'0 0.1
2018-May-01 05:54S 24°05' W 046°20'0 0.0
2018-May-01 05:21S 24°05' W 046°20'0 0.0
2018-May-01 05:00S 24°05' W 046°20'0 0.0
2018-May-01 04:30S 24°05' W 046°20'0 0.0
2018-May-01 04:00S 24°05' W 046°20'0 0.0
2018-May-01 03:30S 24°05' W 046°20'0 0.0
2018-May-01 03:00S 24°05' W 046°20'0 0.1
2018-May-01 02:27S 24°05' W 046°20'0 0.0
2018-May-01 02:00S 24°05' W 046°20'0 0.0
2018-May-01 01:30S 24°05' W 046°20'0 0.0
2018-May-01 01:00S 24°05' W 046°20'0 0.0
2018-May-01 00:30S 24°05' W 046°20'0 0.1
2018-May-01 00:00S 24°05' W 046°20'0 0.0
2018-Apr-30 23:21S 24°05' W 046°20'0 0.0
2018-Apr-30 22:57S 24°05' W 046°20'0 0.0
2018-Apr-30 22:30S 24°05' W 046°20'0 0.4
2018-Apr-30 21:57S 24°05' W 046°20'0 0.5
2018-Apr-30 21:31S 24°05' W 046°19'2 3.0
2018-Apr-30 20:59S 24°04' W 046°18'2 5.0
2018-Apr-30 20:30S 24°05' W 046°15'4 8.7
2018-Apr-30 20:00S 24°05' W 046°10'4 8.2
2018-Apr-30 19:30S 24°05' W 046°06'0 0.7
2018-Apr-30 19:01S 24°04' W 046°06'0 0.0
2018-Apr-30 18:29S 24°04' W 046°06'0 0.0
2018-Apr-30 17:58S 24°04' W 046°06'0 0.0
2018-Apr-30 17:30S 24°04' W 046°06'0 0.0
2018-Apr-30 17:00S 24°04' W 046°06'0 0.1
2018-Apr-30 16:19S 24°04' W 046°06'0 0.4
2018-Apr-30 15:35S 24°05' W 046°06'0 0.4
2018-Apr-30 15:11S 24°05' W 046°06'0 0.4
2018-Apr-30 15:00S 24°05' W 046°06'1 0.5
2018-Apr-30 13:33S 24°05' W 046°05'  

Dump ship's entire track history